Main page
METAR-TAF:

METAR-TAF

Airports :

Baghdad International Airport

Baghdad, Iraq

latitude: 33-15-45N, longitude: 44-14-04E, elevation: 35 m

Current weather observation

The report was made 42 minutes ago, at 08:00 UTC
Wind 3 kt from the South/Southeast, varying between East and West/Southwest
Temperature 16°C
Humidity 34%
Pressure 1022 hPa
Visibility 10 km or more
no clouds below 1500 m and no cumulonimbus

METAR: ORBI 250800Z 16003KT 100V250 CAVOK 16/M00 Q1022 NOSIG

Time: 11:42 (08:42 UTC)

Forecast

The report was made 4 hours and 42 minutes ago, at 04:00 UTC
Forecast valid from 25 at 06 UTC to 26 at 06 UTC
Wind 6 kt from the East/Southeast
Visibility: 7000 m

TAF: ORBI 250400Z 2506/2606 12006KT 7000 NSC

Weather observations and forecasts of more than 4000 airports (METAR and TAF reports).

The available stations are represented by yellow and red dots on the map.

Hover mouse over dot to see the name of the station.

Then click to see weather observations and forecasts.

To change the map : click on the green buttons with a black cross to zoom in, on the green button with a dash to zoom out, or on the green arrows for adjacent maps.


METAR-TAF: